createdAt,value
2023-01-13T00:00:55.020Z,0.00
2023-01-13T00:02:16.686Z,0.00
2023-01-13T00:02:57.286Z,0.00
2023-01-13T00:04:25.702Z,0.00
2023-01-13T00:05:04.357Z,0.00
2023-01-13T00:05:58.289Z,0.00
2023-01-13T00:07:16.758Z,0.00
2023-01-13T00:07:56.812Z,0.00
2023-01-13T00:08:59.280Z,0.00
2023-01-13T00:09:57.903Z,0.00
2023-01-13T00:10:53.864Z,0.00
2023-01-13T00:12:27.308Z,0.00
2023-01-13T00:13:15.311Z,0.00
2023-01-13T00:14:13.597Z,0.00
2023-01-13T00:15:19.245Z,0.00
2023-01-13T00:17:15.154Z,0.00
2023-01-13T00:18:08.647Z,0.00
2023-01-13T00:19:09.307Z,0.00
2023-01-13T00:20:11.807Z,0.00
2023-01-13T00:22:18.259Z,0.00
2023-01-13T00:23:18.425Z,0.00
2023-01-13T00:24:42.126Z,0.00
2023-01-13T00:26:36.548Z,0.00
2023-01-13T00:29:06.315Z,0.00
2023-01-13T00:29:42.282Z,0.00
2023-01-13T00:31:55.911Z,0.00
2023-01-13T00:33:11.311Z,0.00
2023-01-13T00:33:54.835Z,0.00
2023-01-13T00:36:40.458Z,0.00
2023-01-13T00:37:05.034Z,0.00
2023-01-13T00:38:17.439Z,0.00
2023-01-13T00:39:12.015Z,0.00
2023-01-13T00:40:17.412Z,0.00
2023-01-13T00:41:28.965Z,0.00
2023-01-13T00:42:06.283Z,0.00
2023-01-13T00:43:09.021Z,0.00
2023-01-13T00:43:58.180Z,0.00
2023-01-13T00:45:02.980Z,0.00
2023-01-13T00:46:24.175Z,0.00
2023-01-13T00:47:00.658Z,0.00
2023-01-13T00:48:09.608Z,0.00
2023-01-13T00:48:59.935Z,0.00
2023-01-13T00:50:08.147Z,0.00
2023-01-13T00:52:06.771Z,0.00
2023-01-13T00:53:07.291Z,0.00
2023-01-13T00:54:17.740Z,0.00
2023-01-13T00:55:06.401Z,0.00
2023-01-13T00:56:41.271Z,0.00
2023-01-13T00:57:19.234Z,0.00
2023-01-13T00:58:27.361Z,0.00
2023-01-13T00:59:28.315Z,0.00
2023-01-13T01:00:31.290Z,0.00
2023-01-13T01:01:13.351Z,0.00
2023-01-13T01:02:11.219Z,0.00
2023-01-13T01:03:09.066Z,0.00
2023-01-13T01:04:06.532Z,0.00
2023-01-13T01:05:31.030Z,0.00
2023-01-13T01:06:11.072Z,0.00
2023-01-13T01:07:10.091Z,0.00
2023-01-13T01:08:19.218Z,0.00
2023-01-13T01:09:07.379Z,0.00
2023-01-13T01:10:15.612Z,0.00
2023-01-13T01:11:09.084Z,0.00
2023-01-13T01:12:06.205Z,0.00
2023-01-13T01:14:21.493Z,0.00
2023-01-13T01:15:44.614Z,0.00
2023-01-13T01:16:31.013Z,0.00
2023-01-13T01:17:30.827Z,0.00
2023-01-13T01:18:19.951Z,0.00
2023-01-13T01:19:32.739Z,0.00
2023-01-13T01:20:22.741Z,0.00
2023-01-13T01:21:24.712Z,0.00
2023-01-13T01:22:19.932Z,0.00
2023-01-13T01:23:22.935Z,0.00
2023-01-13T01:24:23.557Z,0.00
2023-01-13T01:25:21.587Z,0.00
2023-01-13T01:26:23.624Z,0.00
2023-01-13T01:27:41.867Z,0.00
2023-01-13T01:28:23.661Z,0.00
2023-01-13T01:29:30.755Z,0.00
2023-01-13T01:30:19.611Z,0.00
2023-01-13T01:31:26.376Z,0.00
2023-01-13T01:33:41.890Z,0.00
2023-01-13T01:34:31.211Z,0.00
2023-01-13T01:35:42.472Z,0.00
2023-01-13T01:37:49.493Z,0.00
2023-01-13T01:38:54.461Z,0.00
2023-01-13T01:40:03.482Z,0.00
2023-01-13T01:40:52.993Z,0.00
2023-01-13T01:42:05.861Z,0.00
2023-01-13T01:42:42.544Z,0.00
2023-01-13T01:43:46.049Z,0.00
2023-01-13T01:44:50.582Z,0.00
2023-01-13T01:45:44.597Z,0.00
2023-01-13T01:46:44.730Z,0.00
2023-01-13T01:47:42.441Z,0.00
2023-01-13T01:48:41.685Z,0.00
2023-01-13T01:49:45.568Z,0.00
2023-01-13T01:50:41.649Z,0.00
2023-01-13T01:51:41.865Z,0.00
2023-01-13T01:52:41.615Z,0.00
2023-01-13T01:53:41.615Z,0.00
2023-01-13T01:54:41.609Z,0.00
2023-01-13T01:55:42.441Z,0.00
2023-01-13T01:56:42.266Z,0.00
2023-01-13T01:57:44.959Z,0.00
2023-01-13T01:58:45.377Z,0.00
2023-01-13T01:59:43.720Z,0.00
2023-01-13T02:00:45.213Z,0.00
2023-01-13T02:01:42.726Z,0.00
2023-01-13T02:02:44.880Z,0.00
2023-01-13T02:03:45.171Z,0.00
2023-01-13T02:04:41.507Z,0.00
2023-01-13T02:05:42.189Z,0.00
2023-01-13T02:06:41.875Z,0.00
2023-01-13T02:07:41.941Z,0.00
2023-01-13T02:08:41.655Z,0.00
2023-01-13T02:09:42.252Z,0.00
2023-01-13T02:10:41.586Z,0.00
2023-01-13T02:11:43.452Z,0.00
2023-01-13T02:12:41.412Z,0.00
2023-01-13T02:13:45.740Z,0.00
2023-01-13T02:14:41.565Z,0.00
2023-01-13T02:15:41.385Z,0.00
2023-01-13T02:16:41.389Z,0.00
2023-01-13T02:17:41.332Z,0.00
2023-01-13T02:18:42.011Z,0.00
2023-01-13T02:19:41.302Z,0.00
2023-01-13T02:20:41.541Z,0.00
2023-01-13T02:21:44.694Z,0.00
2023-01-13T02:22:41.272Z,0.00
2023-01-13T02:24:05.753Z,0.00
2023-01-13T02:24:41.207Z,0.00
2023-01-13T02:25:41.229Z,0.00
2023-01-13T02:26:44.726Z,0.00
2023-01-13T02:27:41.445Z,0.00
2023-01-13T02:28:42.323Z,0.00
2023-01-13T02:29:41.207Z,0.00
2023-01-13T02:30:41.260Z,0.00
2023-01-13T02:31:41.351Z,0.00
2023-01-13T02:32:41.336Z,0.00
2023-01-13T02:33:41.350Z,0.00
2023-01-13T02:34:41.129Z,0.00
2023-01-13T02:35:41.107Z,0.00
2023-01-13T02:36:41.767Z,0.00
2023-01-13T02:37:45.467Z,0.00
2023-01-13T02:38:41.278Z,0.00
2023-01-13T02:39:41.067Z,0.00
2023-01-13T02:40:41.313Z,0.00
2023-01-13T02:41:42.507Z,0.00
2023-01-13T02:42:41.005Z,0.00
2023-01-13T02:43:41.684Z,0.00
2023-01-13T02:44:40.994Z,0.00
2023-01-13T02:45:41.062Z,0.00
2023-01-13T02:46:41.226Z,0.00
2023-01-13T02:47:40.926Z,0.00
2023-01-13T02:48:40.930Z,0.00
2023-01-13T02:49:40.939Z,0.00
2023-01-13T02:50:40.921Z,0.00
2023-01-13T02:51:41.582Z,0.00
2023-01-13T02:52:40.920Z,0.00
2023-01-13T02:53:40.886Z,0.00
2023-01-13T02:54:41.081Z,0.00
2023-01-13T02:55:40.873Z,0.00
2023-01-13T02:56:41.085Z,0.00
2023-01-13T02:57:41.126Z,0.00
2023-01-13T02:58:44.216Z,0.00
2023-01-13T02:59:40.912Z,0.00
2023-01-13T03:00:45.101Z,0.00
2023-01-13T03:01:40.959Z,0.00
2023-01-13T03:02:40.803Z,0.00
2023-01-13T03:03:41.455Z,0.00
2023-01-13T03:04:40.771Z,0.00
2023-01-13T03:05:40.953Z,0.00
2023-01-13T03:06:40.993Z,0.00
2023-01-13T03:07:40.924Z,0.00
2023-01-13T03:08:41.130Z,0.00
2023-01-13T03:09:40.688Z,0.00
2023-01-13T03:10:40.687Z,0.00
2023-01-13T03:11:40.722Z,0.00
2023-01-13T03:12:40.872Z,0.00
2023-01-13T03:13:40.694Z,0.00
2023-01-13T03:14:40.648Z,0.00
2023-01-13T03:15:40.682Z,0.00
2023-01-13T03:16:44.050Z,0.00
2023-01-13T03:17:40.864Z,0.00
2023-01-13T03:18:40.614Z,0.00
2023-01-13T03:19:40.808Z,0.00
2023-01-13T03:20:44.156Z,0.00
2023-01-13T03:21:40.605Z,0.00
2023-01-13T03:22:40.573Z,0.00
2023-01-13T03:23:40.556Z,0.00
2023-01-13T03:24:40.529Z,0.00
2023-01-13T03:25:40.517Z,0.00
2023-01-13T03:26:40.500Z,0.00
2023-01-13T03:27:40.517Z,0.00
2023-01-13T03:28:40.503Z,0.00
2023-01-13T03:29:40.694Z,0.00
2023-01-13T03:30:40.476Z,0.00
2023-01-13T03:31:40.662Z,0.00
2023-01-13T03:32:40.455Z,0.00
2023-01-13T03:33:41.108Z,0.00
2023-01-13T03:34:40.610Z,0.00
2023-01-13T03:35:41.231Z,0.00
2023-01-13T03:36:40.371Z,0.00
2023-01-13T03:37:40.361Z,0.00
2023-01-13T03:38:40.401Z,0.00
2023-01-13T03:39:43.873Z,0.00
2023-01-13T03:40:40.343Z,0.00
2023-01-13T03:41:40.329Z,0.00
2023-01-13T03:42:40.510Z,0.00
2023-01-13T03:44:52.972Z,0.00
2023-01-13T03:45:51.102Z,0.00
2023-01-13T03:46:50.428Z,0.00
2023-01-13T03:47:53.867Z,0.00
2023-01-13T03:48:50.420Z,0.00
2023-01-13T03:49:50.429Z,0.00
2023-01-13T03:50:50.389Z,0.00
2023-01-13T03:51:50.366Z,0.00
2023-01-13T03:52:50.354Z,0.00
2023-01-13T03:53:50.352Z,0.00
2023-01-13T03:54:50.432Z,0.00
2023-01-13T03:55:50.330Z,0.00
2023-01-13T03:56:50.332Z,0.00
2023-01-13T03:57:50.360Z,0.00
2023-01-13T03:58:50.301Z,0.00
2023-01-13T03:59:50.298Z,0.00
2023-01-13T04:00:50.292Z,0.00
2023-01-13T04:01:50.313Z,0.00
2023-01-13T04:02:50.276Z,0.00
2023-01-13T04:03:50.314Z,0.00
2023-01-13T04:04:50.251Z,0.00
2023-01-13T04:05:50.249Z,0.00
2023-01-13T04:06:50.199Z,0.00
2023-01-13T04:07:50.205Z,0.00
2023-01-13T04:08:50.176Z,0.00
2023-01-13T04:09:50.179Z,0.00
2023-01-13T04:10:50.151Z,0.00
2023-01-13T04:11:50.150Z,0.00
2023-01-13T04:12:50.147Z,0.00
2023-01-13T04:13:50.141Z,0.00
2023-01-13T04:14:50.139Z,0.00
2023-01-13T04:15:50.141Z,0.00
2023-01-13T04:16:50.118Z,0.00
2023-01-13T04:17:50.080Z,0.00
2023-01-13T04:18:50.076Z,0.00
2023-01-13T04:19:50.082Z,0.00
2023-01-13T04:20:50.051Z,0.00
2023-01-13T04:21:50.018Z,0.00
2023-01-13T04:22:50.013Z,0.00
2023-01-13T04:23:49.984Z,0.00
2023-01-13T04:24:49.997Z,0.00
2023-01-13T04:25:50.061Z,0.00
2023-01-13T04:26:49.985Z,0.00
2023-01-13T04:27:49.956Z,0.00
2023-01-13T04:28:49.968Z,0.00
2023-01-13T04:29:49.949Z,0.00
2023-01-13T04:30:50.003Z,0.00
2023-01-13T04:31:49.926Z,0.00
2023-01-13T04:32:49.972Z,0.00
2023-01-13T04:33:49.898Z,0.00
2023-01-13T04:34:49.881Z,0.00
2023-01-13T04:35:49.857Z,0.00
2023-01-13T04:36:49.927Z,0.00
2023-01-13T04:37:49.867Z,0.00
2023-01-13T04:38:49.823Z,0.00
2023-01-13T04:39:49.833Z,0.00
2023-01-13T04:40:49.824Z,0.00
2023-01-13T04:41:49.833Z,0.00
2023-01-13T04:42:49.791Z,0.00
2023-01-13T04:43:49.792Z,0.00
2023-01-13T04:44:49.778Z,0.00
2023-01-13T04:45:49.766Z,0.00
2023-01-13T04:46:49.766Z,0.00
2023-01-13T04:47:49.732Z,0.00
2023-01-13T04:48:49.715Z,0.00
2023-01-13T04:49:49.706Z,0.00
2023-01-13T04:50:49.690Z,0.00
2023-01-13T04:51:49.696Z,0.00
2023-01-13T04:52:49.661Z,0.00
2023-01-13T04:53:49.673Z,0.00
2023-01-13T04:54:49.661Z,0.00
2023-01-13T04:55:49.683Z,0.00
2023-01-13T04:56:49.621Z,0.00
2023-01-13T04:57:49.593Z,0.00
2023-01-13T04:58:49.605Z,0.00
2023-01-13T04:59:49.618Z,0.00
2023-01-13T05:00:49.596Z,0.00
2023-01-13T05:01:49.723Z,0.00
2023-01-13T05:02:49.563Z,0.00
2023-01-13T05:03:49.539Z,0.00
2023-01-13T05:04:49.580Z,0.00
2023-01-13T05:05:49.527Z,0.00
2023-01-13T05:06:49.525Z,0.00
2023-01-13T05:07:49.485Z,0.00
2023-01-13T05:08:49.506Z,0.00
2023-01-13T05:09:49.489Z,0.00
2023-01-13T05:10:49.501Z,0.00
2023-01-13T05:11:49.434Z,0.00
2023-01-13T05:12:49.430Z,0.00
2023-01-13T05:13:49.437Z,0.00
2023-01-13T05:14:49.408Z,0.00
2023-01-13T05:15:49.512Z,0.00
2023-01-13T05:16:49.380Z,0.00
2023-01-13T05:17:49.367Z,0.00
2023-01-13T05:18:49.385Z,0.00
2023-01-13T05:19:49.379Z,0.00
2023-01-13T05:20:49.376Z,0.00
2023-01-13T05:21:49.338Z,0.00
2023-01-13T05:22:49.312Z,0.00
2023-01-13T05:23:49.302Z,0.00
2023-01-13T05:24:49.311Z,0.00
2023-01-13T05:25:49.322Z,0.00
2023-01-13T05:26:49.330Z,0.00
2023-01-13T05:27:49.283Z,0.00
2023-01-13T05:28:49.260Z,0.00
2023-01-13T05:29:49.265Z,0.00
2023-01-13T05:30:49.509Z,0.00
2023-01-13T05:31:49.233Z,0.00
2023-01-13T05:32:49.196Z,0.00
2023-01-13T05:33:49.201Z,0.00
2023-01-13T05:34:49.185Z,0.00
2023-01-13T05:35:49.208Z,0.00
2023-01-13T05:36:49.172Z,0.00
2023-01-13T05:37:49.180Z,0.00
2023-01-13T05:38:49.146Z,0.00
2023-01-13T05:39:49.145Z,0.00
2023-01-13T05:40:49.116Z,0.00
2023-01-13T05:41:49.154Z,0.00
2023-01-13T05:42:49.096Z,0.00
2023-01-13T05:43:49.105Z,0.00
2023-01-13T05:44:49.077Z,0.00
2023-01-13T05:45:49.092Z,0.00
2023-01-13T05:46:49.085Z,0.00
2023-01-13T05:47:49.053Z,0.00
2023-01-13T05:48:49.040Z,0.00
2023-01-13T05:49:49.009Z,0.00
2023-01-13T05:50:48.995Z,0.00
2023-01-13T05:51:49.013Z,0.00
2023-01-13T05:52:49.012Z,0.00
2023-01-13T05:53:48.969Z,0.00
2023-01-13T05:54:48.982Z,0.00
2023-01-13T05:55:48.926Z,0.00
2023-01-13T05:56:48.958Z,0.00
2023-01-13T05:57:48.946Z,0.00
2023-01-13T05:58:48.958Z,0.00
2023-01-13T05:59:48.897Z,0.00
2023-01-13T06:00:48.870Z,0.00
2023-01-13T06:01:48.916Z,0.00
2023-01-13T06:02:48.868Z,0.00
2023-01-13T06:03:48.890Z,0.00
2023-01-13T06:04:48.830Z,0.00
2023-01-13T06:05:48.849Z,0.00
2023-01-13T06:06:48.841Z,0.00
2023-01-13T06:07:48.809Z,0.00
2023-01-13T06:08:48.814Z,0.00
2023-01-13T06:09:48.770Z,0.00
2023-01-13T06:10:48.785Z,0.00
2023-01-13T06:11:48.821Z,0.00
2023-01-13T06:12:48.766Z,0.00
2023-01-13T06:13:48.758Z,0.00
2023-01-13T06:14:48.775Z,0.00
2023-01-13T06:15:48.785Z,0.00
2023-01-13T06:16:48.713Z,0.00
2023-01-13T06:17:48.689Z,0.00
2023-01-13T06:18:48.682Z,0.00
2023-01-13T06:19:48.690Z,0.00
2023-01-13T06:20:48.659Z,0.00
2023-01-13T06:21:48.666Z,0.00
2023-01-13T06:22:48.647Z,0.00
2023-01-13T06:23:48.630Z,0.00
2023-01-13T06:24:48.626Z,0.00
2023-01-13T06:25:48.633Z,0.00
2023-01-13T06:26:48.564Z,0.00
2023-01-13T06:27:48.624Z,0.00
2023-01-13T06:28:48.560Z,0.00
2023-01-13T06:29:48.560Z,0.00
2023-01-13T06:30:48.580Z,0.00
2023-01-13T06:31:48.613Z,0.00
2023-01-13T06:32:48.527Z,0.00
2023-01-13T06:33:48.527Z,0.00
2023-01-13T06:34:48.520Z,0.00
2023-01-13T06:35:48.498Z,0.00
2023-01-13T06:36:48.482Z,0.00
2023-01-13T06:37:48.480Z,0.00
2023-01-13T06:38:48.472Z,0.00
2023-01-13T06:39:49.469Z,0.00
2023-01-13T06:40:48.435Z,0.00
2023-01-13T06:41:48.418Z,4.00
2023-01-13T06:42:48.454Z,4.00
2023-01-13T06:43:48.402Z,4.00
2023-01-13T06:44:48.611Z,4.00
2023-01-13T06:45:48.371Z,0.00
2023-01-13T06:46:48.485Z,0.00
2023-01-13T06:47:48.377Z,4.00
2023-01-13T06:48:48.386Z,4.00
2023-01-13T06:49:48.328Z,8.00
2023-01-13T06:50:48.315Z,4.00
2023-01-13T06:51:48.329Z,8.00
2023-01-13T06:52:48.302Z,4.00
2023-01-13T06:53:48.537Z,8.00
2023-01-13T06:54:48.436Z,8.00
2023-01-13T06:55:48.242Z,8.00
2023-01-13T06:56:48.258Z,8.00
2023-01-13T06:57:48.372Z,8.00
2023-01-13T06:58:48.215Z,8.00
2023-01-13T06:59:49.966Z,4.00
2023-01-13T07:00:48.332Z,8.00
2023-01-13T07:01:48.321Z,4.00
2023-01-13T07:02:48.202Z,8.00
2023-01-13T07:03:48.145Z,12.00
2023-01-13T07:04:48.384Z,12.00
2023-01-13T07:05:48.131Z,16.00
2023-01-13T07:06:48.099Z,16.00
2023-01-13T07:07:48.106Z,28.00
2023-01-13T07:08:48.112Z,32.00
2023-01-13T07:09:48.111Z,40.00
2023-01-13T07:10:48.100Z,40.00
2023-01-13T07:11:48.067Z,44.00
2023-01-13T07:12:48.037Z,44.00
2023-01-13T07:13:48.068Z,52.00
2023-01-13T07:14:48.027Z,60.00
2023-01-13T07:15:48.010Z,68.00
2023-01-13T07:16:48.107Z,80.00
2023-01-13T07:17:47.985Z,92.00
2023-01-13T07:18:48.019Z,104.00
2023-01-13T07:19:47.979Z,108.00
2023-01-13T07:20:47.987Z,124.00
2023-01-13T07:21:47.937Z,140.00
2023-01-13T07:22:47.942Z,148.00
2023-01-13T07:23:47.990Z,160.00
2023-01-13T07:24:47.913Z,168.00
2023-01-13T07:25:47.919Z,164.00
2023-01-13T07:26:47.926Z,160.00
2023-01-13T07:27:47.856Z,152.00
2023-01-13T07:28:47.862Z,148.00
2023-01-13T07:29:48.100Z,160.00
2023-01-13T07:30:47.847Z,172.00
2023-01-13T07:31:49.965Z,188.00
2023-01-13T07:32:47.831Z,200.00
2023-01-13T07:33:47.814Z,216.00
2023-01-13T07:34:47.810Z,232.00
2023-01-13T07:35:51.399Z,232.00
2023-01-13T07:36:47.793Z,232.00
2023-01-13T07:37:47.803Z,244.00
2023-01-13T07:38:47.768Z,268.00
2023-01-13T07:39:47.754Z,276.00
2023-01-13T07:40:47.736Z,264.00
2023-01-13T07:41:47.723Z,268.00
2023-01-13T07:42:48.031Z,288.00
2023-01-13T07:43:47.969Z,312.00
2023-01-13T07:44:47.676Z,340.00
2023-01-13T07:45:47.656Z,400.00
2023-01-13T07:46:51.104Z,480.00
2023-01-13T07:47:47.685Z,564.00
2023-01-13T07:48:47.651Z,616.00
2023-01-13T07:49:47.645Z,672.00
2023-01-13T07:50:47.621Z,768.00
2023-01-13T07:51:48.270Z,896.00
2023-01-13T07:52:48.438Z,1064.00
2023-01-13T07:53:47.656Z,1288.00
2023-01-13T07:54:47.600Z,1500.00
2023-01-13T07:55:47.794Z,1544.00
2023-01-13T07:56:47.578Z,1524.00
2023-01-13T07:57:47.579Z,1572.00
2023-01-13T07:58:47.496Z,1644.00
2023-01-13T07:59:47.505Z,1696.00
2023-01-13T08:00:50.555Z,1612.00
2023-01-13T08:01:47.680Z,1540.00
2023-01-13T08:02:47.763Z,1584.00
2023-01-13T08:03:47.681Z,1456.00
2023-01-13T08:04:47.471Z,1224.00
2023-01-13T08:05:47.917Z,1056.00
2023-01-13T08:06:47.498Z,996.00
2023-01-13T08:07:50.885Z,1008.00
2023-01-13T08:08:47.573Z,1104.00
2023-01-13T08:09:47.417Z,1224.00
2023-01-13T08:10:48.017Z,1360.00
2023-01-13T08:11:47.349Z,1480.00
2023-01-13T08:12:53.732Z,1632.00
2023-01-13T08:13:48.337Z,1572.00
2023-01-13T08:14:47.367Z,1256.00
2023-01-13T08:15:47.355Z,1012.00
2023-01-13T08:16:47.408Z,928.00
2023-01-13T08:17:47.322Z,964.00
2023-01-13T08:18:47.285Z,1048.00
2023-01-13T08:19:47.346Z,1192.00
2023-01-13T08:20:47.287Z,1380.00
2023-01-13T08:21:47.286Z,1496.00
2023-01-13T08:22:47.244Z,1520.00
2023-01-13T08:23:47.212Z,1496.00
2023-01-13T08:24:47.236Z,1436.00
2023-01-13T08:25:47.216Z,1320.00
2023-01-13T08:26:47.197Z,1204.00
2023-01-13T08:27:47.185Z,1156.00
2023-01-13T08:28:47.187Z,1100.00
2023-01-13T08:29:47.159Z,1048.00
2023-01-13T08:30:47.257Z,1044.00
2023-01-13T08:31:47.187Z,1044.00
2023-01-13T08:32:47.103Z,992.00
2023-01-13T08:33:47.218Z,948.00
2023-01-13T08:34:47.101Z,948.00
2023-01-13T08:35:47.245Z,980.00
2023-01-13T08:36:47.224Z,1060.00
2023-01-13T08:37:47.090Z,1144.00
2023-01-13T08:38:47.311Z,1184.00
2023-01-13T08:39:47.061Z,1128.00
2023-01-13T08:40:47.091Z,1096.00
2023-01-13T08:41:47.064Z,1096.00
2023-01-13T08:42:48.617Z,1232.00
2023-01-13T08:43:47.001Z,1400.00
2023-01-13T08:44:46.982Z,1480.00
2023-01-13T08:45:47.001Z,1560.00
2023-01-13T08:46:47.004Z,1648.00
2023-01-13T08:47:46.967Z,1828.00
2023-01-13T08:48:46.938Z,1832.00
2023-01-13T08:49:46.953Z,1452.00
2023-01-13T08:50:49.972Z,1028.00
2023-01-13T08:51:46.906Z,824.00
2023-01-13T08:52:46.905Z,756.00
2023-01-13T08:53:46.931Z,708.00
2023-01-13T08:54:46.923Z,688.00
2023-01-13T08:55:46.860Z,640.00
2023-01-13T08:56:46.892Z,636.00
2023-01-13T08:57:46.878Z,540.00
2023-01-13T08:58:46.822Z,488.00
2023-01-13T08:59:46.796Z,416.00
2023-01-13T09:00:46.811Z,400.00
2023-01-13T09:01:46.925Z,432.00
2023-01-13T09:02:46.786Z,448.00
2023-01-13T09:03:46.765Z,476.00
2023-01-13T09:04:46.802Z,532.00
2023-01-13T09:05:46.756Z,624.00
2023-01-13T09:06:46.766Z,740.00
2023-01-13T09:07:46.706Z,824.00
2023-01-13T09:08:46.727Z,828.00
2023-01-13T09:09:46.691Z,772.00
2023-01-13T09:10:46.818Z,736.00
2023-01-13T09:11:46.712Z,744.00
2023-01-13T09:12:46.757Z,688.00
2023-01-13T09:13:46.688Z,688.00
2023-01-13T09:14:46.657Z,700.00
2023-01-13T09:15:46.725Z,780.00
2023-01-13T09:16:46.627Z,956.00
2023-01-13T09:17:46.666Z,1064.00
2023-01-13T09:18:46.613Z,1112.00
2023-01-13T09:19:46.596Z,1192.00
2023-01-13T09:20:46.636Z,1252.00
2023-01-13T09:21:46.529Z,1292.00
2023-01-13T09:22:46.565Z,1436.00
2023-01-13T09:23:46.537Z,1564.00
2023-01-13T09:24:46.541Z,1680.00
2023-01-13T09:25:46.541Z,1908.00
2023-01-13T09:26:46.498Z,2200.00
2023-01-13T09:27:46.545Z,2464.00
2023-01-13T09:28:46.514Z,2868.00
2023-01-13T09:29:46.481Z,3520.00
2023-01-13T09:30:46.579Z,3836.00
2023-01-13T09:31:46.461Z,4080.00
2023-01-13T09:32:46.418Z,4296.00
2023-01-13T09:33:46.426Z,4140.00
2023-01-13T09:34:46.406Z,3532.00
2023-01-13T09:35:46.408Z,3012.00
2023-01-13T09:36:46.547Z,2768.00
2023-01-13T09:37:46.381Z,2856.00
2023-01-13T09:38:46.357Z,3320.00
2023-01-13T09:39:46.397Z,3788.00
2023-01-13T09:40:46.596Z,3768.00
2023-01-13T09:41:46.581Z,4028.00
2023-01-13T09:42:46.309Z,5096.00
2023-01-13T09:43:46.288Z,5904.00
2023-01-13T09:44:49.313Z,6060.00
2023-01-13T09:45:46.329Z,5996.00
2023-01-13T09:46:46.249Z,4912.00
2023-01-13T09:47:46.324Z,4048.00
2023-01-13T09:48:46.251Z,3652.00
2023-01-13T09:49:46.282Z,4128.00
2023-01-13T09:50:46.428Z,4572.00
2023-01-13T09:51:46.275Z,5148.00
2023-01-13T09:52:46.212Z,3848.00
2023-01-13T09:53:46.208Z,5804.00
2023-01-13T09:54:46.176Z,5280.00
2023-01-13T09:55:46.201Z,6196.00
2023-01-13T09:56:46.156Z,6312.00
2023-01-13T09:57:46.173Z,6628.00
2023-01-13T09:58:46.252Z,6740.00
2023-01-13T09:59:46.160Z,6664.00
2023-01-13T10:00:46.095Z,4744.00
2023-01-13T10:01:46.103Z,5216.00
2023-01-13T10:02:46.124Z,5420.00
2023-01-13T10:03:46.199Z,5848.00
2023-01-13T10:04:46.048Z,6600.00
2023-01-13T10:05:46.051Z,5308.00
2023-01-13T10:06:46.027Z,6888.00
2023-01-13T10:07:46.044Z,4208.00
2023-01-13T10:08:45.994Z,4988.00
2023-01-13T10:09:49.028Z,5916.00
2023-01-13T10:10:46.010Z,6596.00
2023-01-13T10:11:46.021Z,5960.00
2023-01-13T10:12:46.337Z,5492.00
2023-01-13T10:13:46.033Z,5320.00
2023-01-13T10:14:46.412Z,5320.00
2023-01-13T10:15:45.939Z,5208.00
2023-01-13T10:16:45.913Z,5144.00
2023-01-13T10:17:46.231Z,4800.00
2023-01-13T10:18:45.934Z,4376.00
2023-01-13T10:19:45.874Z,4244.00
2023-01-13T10:20:45.885Z,5256.00
2023-01-13T10:21:45.835Z,6924.00
2023-01-13T10:22:45.890Z,6884.00
2023-01-13T10:23:45.910Z,7052.00
2023-01-13T10:24:45.851Z,6884.00
2023-01-13T10:25:45.927Z,5340.00
2023-01-13T10:26:45.800Z,4348.00
2023-01-13T10:27:45.810Z,3660.00
2023-01-13T10:28:45.804Z,3284.00
2023-01-13T10:29:45.840Z,3672.00
2023-01-13T10:30:45.786Z,4048.00
2023-01-13T10:31:45.734Z,4100.00
2023-01-13T10:32:45.720Z,4092.00
2023-01-13T10:33:45.712Z,4416.00
2023-01-13T10:34:45.761Z,4452.00
2023-01-13T10:35:45.708Z,4400.00
2023-01-13T10:36:45.707Z,4268.00
2023-01-13T10:37:46.726Z,4732.00
2023-01-13T10:38:45.707Z,4876.00
2023-01-13T10:39:45.668Z,4804.00
2023-01-13T10:40:45.756Z,4844.00
2023-01-13T10:41:45.609Z,4592.00
2023-01-13T10:42:45.620Z,4560.00
2023-01-13T10:43:45.593Z,4484.00
2023-01-13T10:44:45.625Z,4500.00
2023-01-13T10:45:45.607Z,5384.00
2023-01-13T10:46:45.615Z,9736.00
2023-01-13T10:47:45.557Z,11036.00
2023-01-13T10:48:45.526Z,9688.00
2023-01-13T10:49:45.573Z,9896.00
2023-01-13T10:50:45.501Z,9036.00
2023-01-13T10:51:45.542Z,8216.00
2023-01-13T10:52:45.485Z,16608.00
2023-01-13T10:53:45.479Z,8588.00
2023-01-13T10:54:45.478Z,16736.00
2023-01-13T10:55:45.468Z,9332.00
2023-01-13T10:56:45.483Z,11216.00
2023-01-13T10:57:45.508Z,18656.00
2023-01-13T10:58:45.422Z,12016.00
2023-01-13T10:59:45.483Z,29888.00
2023-01-13T11:00:45.394Z,30048.00
2023-01-13T11:01:45.606Z,27296.00
2023-01-13T11:02:45.447Z,27648.00
2023-01-13T11:03:45.405Z,8452.00
2023-01-13T11:04:45.419Z,24800.00
2023-01-13T11:05:45.364Z,24672.00
2023-01-13T11:06:45.327Z,25152.00
2023-01-13T11:07:45.358Z,26336.00
2023-01-13T11:08:46.167Z,25952.00
2023-01-13T11:09:45.337Z,12396.00
2023-01-13T11:10:45.290Z,21376.00
2023-01-13T11:11:45.274Z,26272.00
2023-01-13T11:12:46.148Z,26560.00
2023-01-13T11:13:45.546Z,26496.00
2023-01-13T11:14:45.285Z,25760.00
2023-01-13T11:15:45.669Z,25760.00
2023-01-13T11:16:53.011Z,23648.00
2023-01-13T11:17:46.636Z,25600.00
2023-01-13T11:18:45.174Z,25984.00
2023-01-13T11:19:45.183Z,25600.00
2023-01-13T11:20:45.189Z,25280.00
2023-01-13T11:21:45.525Z,25184.00
2023-01-13T11:22:45.484Z,25632.00
2023-01-13T11:23:45.151Z,25888.00
2023-01-13T11:24:45.383Z,26240.00
2023-01-13T11:25:45.155Z,26720.00
2023-01-13T11:26:45.111Z,26080.00
2023-01-13T11:27:45.110Z,26560.00
2023-01-13T11:28:45.090Z,26240.00
2023-01-13T11:29:45.088Z,25600.00
2023-01-13T11:30:45.058Z,25440.00
2023-01-13T11:31:45.114Z,24064.00
2023-01-13T11:32:45.275Z,23520.00
2023-01-13T11:33:45.026Z,23072.00
2023-01-13T11:34:45.065Z,22432.00
2023-01-13T11:35:45.038Z,21856.00
2023-01-13T11:36:45.035Z,20416.00
2023-01-13T11:37:45.998Z,21664.00
2023-01-13T11:38:45.029Z,20352.00
2023-01-13T11:39:44.973Z,20480.00
2023-01-13T11:40:44.937Z,21664.00
2023-01-13T11:41:45.096Z,19776.00
2023-01-13T11:42:46.058Z,20288.00
2023-01-13T11:43:44.891Z,15808.00
2023-01-13T11:44:45.039Z,20480.00
2023-01-13T11:45:44.921Z,20224.00
2023-01-13T11:46:44.948Z,20992.00
2023-01-13T11:47:44.864Z,21728.00
2023-01-13T11:48:44.843Z,21856.00
2023-01-13T11:49:44.844Z,22144.00
2023-01-13T11:50:44.851Z,22368.00
2023-01-13T11:51:44.817Z,22304.00
2023-01-13T11:52:44.852Z,22688.00
2023-01-13T11:53:44.797Z,24256.00
2023-01-13T11:54:44.791Z,24224.00
2023-01-13T11:55:44.827Z,23840.00
2023-01-13T11:56:44.747Z,23968.00
2023-01-13T11:57:44.781Z,8648.00
2023-01-13T11:58:50.735Z,23456.00
2023-01-13T11:59:45.748Z,15680.00
2023-01-13T12:00:44.758Z,16160.00
2023-01-13T12:01:44.737Z,22240.00
2023-01-13T12:02:44.719Z,21568.00
2023-01-13T12:03:44.718Z,20576.00
2023-01-13T12:04:44.668Z,19840.00
2023-01-13T12:05:44.676Z,18880.00
2023-01-13T12:06:44.653Z,20544.00
2023-01-13T12:07:44.626Z,20704.00
2023-01-13T12:08:44.639Z,16800.00
2023-01-13T12:09:44.607Z,20608.00
2023-01-13T12:10:44.607Z,20096.00
2023-01-13T12:11:44.610Z,19872.00
2023-01-13T12:12:45.033Z,5312.00
2023-01-13T12:13:45.602Z,4472.00
2023-01-13T12:14:44.974Z,5344.00
2023-01-13T12:15:44.565Z,6468.00
2023-01-13T12:16:44.552Z,6100.00
2023-01-13T12:17:44.510Z,6276.00
2023-01-13T12:18:44.482Z,7328.00
2023-01-13T12:19:44.530Z,6128.00
2023-01-13T12:20:44.479Z,3716.00
2023-01-13T12:21:44.445Z,2876.00
2023-01-13T12:22:44.477Z,2596.00
2023-01-13T12:23:44.437Z,3176.00
2023-01-13T12:24:44.468Z,4260.00
2023-01-13T12:25:44.482Z,5908.00
2023-01-13T12:26:44.406Z,6108.00
2023-01-13T12:27:47.150Z,6644.00
2023-01-13T12:28:44.437Z,8948.00
2023-01-13T12:29:44.388Z,9324.00
2023-01-13T12:30:44.457Z,7120.00
2023-01-13T12:31:44.479Z,6864.00
2023-01-13T12:32:44.335Z,6328.00
2023-01-13T12:33:44.362Z,8912.00
2023-01-13T12:34:44.384Z,4472.00
2023-01-13T12:35:44.314Z,3804.00
2023-01-13T12:36:44.314Z,4428.00
2023-01-13T12:37:44.251Z,5032.00
2023-01-13T12:38:44.280Z,4252.00
2023-01-13T12:39:44.331Z,5116.00
2023-01-13T12:40:44.221Z,4628.00
2023-01-13T12:41:44.254Z,4456.00
2023-01-13T12:42:44.215Z,5276.00
2023-01-13T12:43:44.466Z,13192.00
2023-01-13T12:44:44.227Z,7468.00
2023-01-13T12:45:44.189Z,7052.00
2023-01-13T12:46:44.189Z,5496.00
2023-01-13T12:47:44.313Z,6860.00
2023-01-13T12:48:44.232Z,6932.00
2023-01-13T12:49:44.134Z,6232.00
2023-01-13T12:50:44.167Z,6000.00
2023-01-13T12:51:44.216Z,5732.00
2023-01-13T12:52:44.119Z,5100.00
2023-01-13T12:53:44.081Z,5872.00
2023-01-13T12:54:44.087Z,8644.00
2023-01-13T12:55:44.193Z,8028.00
2023-01-13T12:56:44.067Z,9524.00